Flight Track Log - Related Links

Times and Time Zones

All times are in EDT time to prevent confusion due to time zone crossing. See the RPA3159 flight status page for this flight to view local times or setup timezone preferences in your user account.


Time Position Orientation Groundspeed Altitude Reporting Facility
EDT Latitude Longitude Course Direction KTS MPH feet Rate Location/Type
Sat 02:15:00 PM 39.9001 -75.8483 270° West  Level FlightAware Approximate
Sat 02:16:00 PM 39.9000 -76.0068 270° West  Level FlightAware Approximate
Sat 02:17:00 PM 39.9000 -76.1652 270° West  Level FlightAware Approximate
Sat 02:18:00 PM 39.9000 -76.3237 270° West  Level FlightAware Approximate
Sat 02:19:00 PM 39.9167 -76.4798 270° West  Level FlightAware Approximate
Sat 02:20:00 PM 39.9167 -76.6383 270° West  Level FlightAware Approximate
Sat 02:21:00 PM 39.9273 -76.7958 278° West  Level FlightAware Approximate
Sat 02:22:00 PM 39.9333 -76.9537 270° West  Level FlightAware Approximate
Sat 02:23:00 PM 39.9333 -77.1123 270° West  Level FlightAware Approximate
Sat 02:24:00 PM 39.9420 -77.2674 303° West  Level FlightAware Approximate
Sat 02:25:00 PM 39.9500 -77.4229 270° West  Level FlightAware Approximate
Sat 02:26:00 PM 39.9500 -77.5814 270° West  Level FlightAware Approximate
Sat 02:27:00 PM 39.9500 -77.7400 270° West  Level FlightAware Approximate
Sat 02:28:00 PM 39.9667 -77.8940 270° West  Level FlightAware Approximate
Sat 02:29:00 PM 39.9668 -78.0526 270° West  Level FlightAware Approximate
Sat 02:30:00 PM 39.9668 -78.2112 270° West  Level FlightAware Approximate
Sat 02:31:00 PM 39.9685 -78.3698 273° West  Level FlightAware Approximate
Sat 02:32:00 PM 39.9740 -78.5282 273° West  Level FlightAware Approximate
Sat 02:33:00 PM 39.9792 -78.6867 273° West  Level FlightAware Approximate
Sat 02:34:00 PM 39.9842 -78.8452 272° West  Level FlightAware Approximate
Sat 02:35:00 PM 39.9890 -79.0037 272° West  Level FlightAware Approximate
Sat 02:36:00 PM 39.9935 -79.1622 272° West  Level FlightAware Approximate
Sat 02:37:00 PM 39.9979 -79.3208 272° West  Level FlightAware Approximate
Sat 02:38:00 PM 40.0001 -79.4794 270° West  Level FlightAware Approximate
Sat 02:39:00 PM 40.0002 -79.6381 270° West  Level FlightAware Approximate
Sat 02:40:00 PM 40.0000 -79.7968 270° West  Level FlightAware Approximate
Sat 02:41:00 PM 40.0028 -79.9554 272° West  Level FlightAware Approximate
Sat 02:42:00 PM 40.0059 -80.1141 271° West  Level FlightAware Approximate
Sat 02:43:00 PM 40.0087 -80.2727 271° West  Level FlightAware Approximate
Sat 02:44:00 PM 40.0113 -80.4314 271° West  Level FlightAware Approximate
Sat 02:45:00 PM 40.0136 -80.5900 271° West  Level FlightAware Approximate
Sat 02:46:00 PM 40.0158 -80.7487 271° West  Level FlightAware Approximate
Sat 02:47:00 PM 40.0130 -80.9073 267° West  Level FlightAware Approximate
Sat 02:48:00 PM 40.0065 -81.0658 267° West  Level FlightAware Approximate
Sat 02:49:00 PM 40.0000 -81.2242 270° West  Level FlightAware Approximate
Sat 02:50:00 PM 40.0001 -81.3829 270° West  Level FlightAware Approximate
Sat 02:51:00 PM 40.0000 -81.5416 270° West  Level FlightAware Approximate
Sat 02:52:00 PM 39.9970 -81.7001 268° West  Level FlightAware Approximate
Sat 02:53:00 PM 39.9922 -81.8587 268° West  Level FlightAware Approximate
Sat 02:54:00 PM 39.9871 -82.0172 268° West  Level FlightAware Approximate
Sat 02:55:00 PM 39.9818 -82.1757 268° West  Level FlightAware Approximate
Sat 02:56:00 PM 39.9762 -82.3341 267° West  Level FlightAware Approximate
Sat 02:57:00 PM 39.9705 -82.4926 267° West  Level FlightAware Approximate
Sat 02:58:00 PM 39.9646 -82.6510 267° West  Level FlightAware Approximate
Sat 02:59:00 PM 39.9584 -82.8094 267° West  Level FlightAware Approximate
Sat 03:00:00 PM 39.9520 -82.9677 267° West  Level FlightAware Approximate
Sat 03:01:00 PM 39.9500 -83.1262 270° West  Level FlightAware Approximate
Sat 03:02:00 PM 39.9557 -83.2845 274° West  Level FlightAware Approximate
Sat 03:03:00 PM 39.9645 -83.4427 274° West  Level FlightAware Approximate
Sat 03:04:00 PM 39.9714 -83.6010 273° West  Level FlightAware Approximate
Sat 03:05:00 PM 39.9776 -83.7594 273° West  Level FlightAware Approximate
Sat 03:06:00 PM 39.9836 -83.9179 273° West  Level FlightAware Approximate
Sat 03:07:00 PM 39.9894 -84.0763 273° West  Level FlightAware Approximate
Sat 03:08:00 PM 39.9950 -84.2348 273° West  Level FlightAware Approximate
Sat 03:09:00 PM 39.9991 -84.3933 264° West  Level FlightAware Approximate
Sat 03:10:00 PM 39.9856 -84.5509 264° West  Level FlightAware Approximate
Sat 03:11:00 PM 39.9718 -84.7085 264° West  Level FlightAware Approximate
Sat 03:12:00 PM 39.9579 -84.8661 263° West  Level FlightAware Approximate
Sat 03:13:00 PM 39.9437 -85.0236 263° West  Level FlightAware Approximate
Sat 03:14:00 PM 39.9293 -85.1810 263° West  Level FlightAware Approximate
Sat 03:15:00 PM 39.9144 -85.3383 262° West  Level FlightAware Approximate
Sat 03:16:00 PM 39.8975 -85.4952 262° West  Level FlightAware Approximate
Sat 03:17:00 PM 39.8805 -85.6520 262° West  Level FlightAware Approximate
Sat 03:18:00 PM 39.8632 -85.8088 262° West  Level FlightAware Approximate
Sat 03:19:00 PM 39.8457 -85.9655 262° West  Level FlightAware Approximate
Sat 03:20:00 PM 39.8281 -86.1221 262° West  Level FlightAware Approximate
Sat 03:21:00 PM 39.8102 -86.2786 262° West  Level FlightAware Approximate
Sat 03:22:00 PM 39.8283 -86.4253 302° West  Level FlightAware Approximate
Sat 03:23:00 PM 39.8929 -86.5594 302° West  Level FlightAware Approximate
Sat 03:24:00 PM 39.9573 -86.6939 302° West  Level FlightAware Approximate
Sat 03:25:00 PM 40.0197 -86.8299 299° West  Level FlightAware Approximate
Sat 03:26:00 PM 40.0785 -86.9689 299° West  Level FlightAware Approximate
Sat 03:27:00 PM 40.1371 -87.1081 299° West  Level FlightAware Approximate
Sat 03:28:00 PM 40.1956 -87.2476 299° West  Level FlightAware Approximate
Sat 03:29:00 PM 40.2538 -87.3873 299° West  Level FlightAware Approximate
Sat 03:30:00 PM 40.3119 -87.5273 299° West  Level FlightAware Approximate
Sat 03:31:00 PM 40.3699 -87.6675 299° West  Level FlightAware Approximate
Sat 03:32:00 PM 40.4276 -87.8079 298° West  Level FlightAware Approximate
Sat 03:33:00 PM 40.4852 -87.9486 298° West  Level FlightAware Approximate
Sat 03:34:00 PM 40.5428 -88.0894 299° West  Level FlightAware Approximate
Sat 03:35:00 PM 40.6012 -88.2297 299° West  Level FlightAware Approximate
Sat 03:36:00 PM 40.6595 -88.3703 299° West  Level FlightAware Approximate
Sat 03:37:00 PM 40.7176 -88.5111 299° West  Level FlightAware Approximate
Sat 03:38:00 PM 40.7755 -88.6522 298° West  Level FlightAware Approximate
Sat 03:39:00 PM 40.8332 -88.7935 298° West  Level FlightAware Approximate
Sat 03:40:00 PM 40.8907 -88.9351 298° West  Level FlightAware Approximate
Sat 03:41:00 PM 40.9477 -89.0771 298° West  Level FlightAware Approximate
Sat 03:42:00 PM 41.0045 -89.2195 298° West  Level FlightAware Approximate
Sat 03:43:00 PM 41.0616 -89.3618 298° West  Level FlightAware Approximate
Sat 03:44:00 PM 41.1185 -89.5043 298° West  Level FlightAware Approximate
Sat 03:45:00 PM 41.1811 -89.6422 305° West  Level FlightAware Approximate
Sat 03:46:00 PM 41.2509 -89.7746 305° West  Level FlightAware Approximate
Sat 03:47:00 PM 41.3204 -89.9072 305° West  Level FlightAware Approximate
Sat 03:48:00 PM 41.3893 -90.0407 305° West  Level FlightAware Approximate
Sat 03:49:00 PM 41.4579 -90.1745 304° West  Level FlightAware Approximate
Sat 03:50:00 PM 41.5265 -90.3085 304° West  Level FlightAware Approximate
Sat 03:51:00 PM 41.5948 -90.4428 304° West  Level FlightAware Approximate
Sat 03:52:00 PM 41.6631 -90.5774 304° West  Level FlightAware Approximate
Sat 03:53:00 PM 41.7311 -90.7123 304° West  Level FlightAware Approximate
Sat 03:54:00 PM 41.8008 -90.8458 305° West  Level FlightAware Approximate
Sat 03:55:00 PM 41.8704 -90.9796 305° West  Level FlightAware Approximate
Sat 03:56:00 PM 41.9398 -91.1136 305° West  Level FlightAware Approximate
Sat 03:57:00 PM 42.0070 -91.2499 303° West  Level FlightAware Approximate
Sat 03:58:00 PM 42.0737 -91.3867 303° West  Level FlightAware Approximate
Sat 03:59:00 PM 42.1401 -91.5239 303° West  Level FlightAware Approximate
Sat 04:00:00 PM 42.2065 -91.6613 303° West  Level FlightAware Approximate
Sat 04:01:00 PM 42.2727 -91.7990 303° West  Level FlightAware Approximate
Sat 04:02:00 PM 42.3386 -91.9371 303° West  Level FlightAware Approximate
Sat 04:03:00 PM 42.4045 -92.0754 303° West  Level FlightAware Approximate
Sat 04:04:00 PM 42.4702 -92.2140 303° West  Level FlightAware Approximate
Sat 04:05:00 PM 42.5357 -92.3529 303° West  Level FlightAware Approximate
Sat 04:06:00 PM 42.6173 -92.4504 324° Northwest  Level FlightAware Approximate
Sat 04:07:00 PM 42.7060 -92.5392 324° Northwest  Level FlightAware Approximate
Sat 04:08:00 PM 42.7967 -92.6241 327° Northwest  Level FlightAware Approximate
Sat 04:09:00 PM 42.8893 -92.7054 327° Northwest  Level FlightAware Approximate
Sat 04:10:00 PM 42.9813 -92.7881 327° Northwest  Level FlightAware Approximate
Sat 04:11:00 PM 43.0730 -92.8715 326° Northwest  Level FlightAware Approximate
Sat 04:12:00 PM 43.1638 -92.9568 326° Northwest  Level FlightAware Approximate
Sat 04:13:00 PM 43.2547 -93.0423 326° Northwest  Level FlightAware Approximate
Sat 04:14:00 PM 43.3452 -93.1285 324° Northwest  Level FlightAware Approximate
Sat 04:15:00 PM 43.4343 -93.2176 324° Northwest  Level FlightAware Approximate
Sat 04:16:00 PM 43.5289 -93.2833 North  Level FlightAware Approximate
Sat 04:17:00 PM 43.6388 -93.2746 North  Level FlightAware Approximate
Sat 04:18:00 PM 43.7487 -93.2651 North  Level FlightAware Approximate
Sat 04:19:00 PM 43.8586 -93.2542 North  Level FlightAware Approximate
Sat 04:20:00 PM 43.9672 -93.2314 North  Level FlightAware Approximate
Sat 04:21:00 PM 44.0769 -93.2192 North  Level FlightAware Approximate
Sat 04:22:00 PM 44.1870 -93.2167 North  Level FlightAware Approximate
Sat 04:23:00 PM 44.2963 -93.2068 13° North  Level FlightAware Approximate
Sat 04:24:00 PM 44.4056 -93.1944 North  Level FlightAware Approximate
Sat 04:25:00 PM 44.5154 -93.1833 North  Level FlightAware Approximate
Sat 04:26:00 PM 44.6247 -93.1687 350° North  Level FlightAware Approximate
Sat 04:27:00 PM 44.7334 -93.1933 352° North  Level FlightAware Approximate
Sat 04:28:00 PM 44.8424 -93.2151 352° North  Level FlightAware Approximate
Sat 04:29:00 PM 44.8667 -93.2167 North  Level FlightAware Approximate
Sat 04:30:00 PM 44.8820 -93.2218 North  Level Estimated
Sat 04:31:00 PM 44.8820 -93.2218 North  Level Estimated
Sat 04:32:00 PM 44.8820 -93.2218 North  Level Estimated

Login

Don't have an account? Register now (free) for customized features, flight alerts, and more!